createdAt,value
2022-08-01T00:00:08.732Z,16.03
2022-08-01T00:05:12.051Z,14.38
2022-08-01T00:10:16.279Z,15.39
2022-08-01T00:15:19.703Z,15.48
2022-08-01T00:20:22.018Z,15.45
2022-08-01T00:25:33.825Z,15.85
2022-08-01T00:30:37.520Z,15.27
2022-08-01T00:35:39.824Z,15.73
2022-08-01T00:40:42.533Z,14.75
2022-08-01T00:45:56.875Z,15.06
2022-08-01T00:50:59.343Z,15.06
2022-08-01T00:56:26.134Z,14.37
2022-08-01T01:01:39.637Z,15.06
2022-08-01T01:07:12.936Z,15.47
2022-08-01T01:12:30.115Z,14.84
2022-08-01T01:17:51.074Z,15.12
2022-08-01T01:23:50.243Z,15.33
2022-08-01T01:29:10.795Z,14.89
2022-08-01T01:34:15.348Z,13.15
2022-08-01T01:39:18.341Z,15.04
2022-08-01T01:44:39.940Z,14.79
2022-08-01T01:49:44.835Z,14.46
2022-08-01T01:54:51.415Z,14.85
2022-08-01T01:59:54.753Z,14.92
2022-08-01T02:04:59.378Z,14.73
2022-08-01T02:10:03.618Z,13.83
2022-08-01T02:15:07.173Z,13.58
2022-08-01T02:20:10.258Z,14.03
2022-08-01T02:25:25.333Z,14.84
2022-08-01T02:30:32.042Z,14.04
2022-08-01T02:36:31.474Z,14.75
2022-08-01T02:41:04.838Z,14.49
2022-08-01T02:46:09.634Z,14.01
2022-08-01T02:51:13.075Z,14.16
2022-08-01T02:56:16.956Z,14.16
2022-08-01T03:01:19.999Z,12.77
2022-08-01T03:06:22.905Z,13.71
2022-08-01T03:11:26.115Z,14.86
2022-08-01T03:16:28.466Z,14.39
2022-08-01T03:21:50.088Z,14.56
2022-08-01T03:26:53.571Z,14.71
2022-08-01T03:31:56.545Z,12.56
2022-08-01T03:37:16.435Z,13.37
2022-08-01T03:42:20.830Z,13.70
2022-08-01T03:47:26.496Z,13.65
2022-08-01T03:52:31.343Z,14.10
2022-08-01T03:57:36.792Z,14.50
2022-08-01T04:02:39.861Z,15.48
2022-08-01T04:07:56.734Z,15.95
2022-08-01T04:12:59.072Z,13.63
2022-08-01T04:18:01.450Z,15.20
2022-08-01T04:23:03.817Z,15.37
2022-08-01T04:28:08.794Z,15.77
2022-08-01T04:33:11.905Z,16.01
2022-08-01T04:38:18.397Z,17.03
2022-08-01T04:43:21.149Z,16.98
2022-08-01T04:48:25.597Z,17.26
2022-08-01T04:53:29.071Z,17.27
2022-08-01T04:58:31.370Z,16.60
2022-08-01T05:03:38.438Z,16.09
2022-08-01T05:08:42.658Z,17.89
2022-08-01T05:13:51.034Z,18.07
2022-08-01T05:18:54.185Z,17.91
2022-08-01T05:23:56.578Z,18.34
2022-08-01T05:28:58.911Z,18.48
2022-08-01T05:34:02.878Z,18.42
2022-08-01T05:39:06.106Z,18.92
2022-08-01T05:44:09.041Z,18.46
2022-08-01T05:49:11.761Z,17.52
2022-08-01T05:54:14.189Z,19.09
2022-08-01T05:59:16.870Z,19.29
2022-08-01T06:04:19.227Z,18.39
2022-08-01T06:09:21.707Z,19.47
2022-08-01T06:14:24.307Z,18.31
2022-08-01T06:19:28.582Z,17.80
2022-08-01T06:24:30.880Z,18.35
2022-08-01T06:29:33.763Z,20.50
2022-08-01T06:34:36.175Z,18.18
2022-08-01T06:39:38.554Z,20.74
2022-08-01T06:44:40.924Z,19.34
2022-08-01T06:49:43.200Z,20.61
2022-08-01T06:54:45.486Z,19.38
2022-08-01T06:59:54.215Z,20.49
2022-08-01T07:05:01.380Z,20.92
2022-08-01T07:10:07.073Z,20.56
2022-08-01T07:15:12.975Z,21.03
2022-08-01T07:20:16.604Z,21.39
2022-08-01T07:25:19.092Z,19.32
2022-08-01T07:30:21.419Z,20.29
2022-08-01T07:35:24.063Z,21.15
2022-08-01T07:40:26.843Z,20.90
2022-08-01T07:45:29.256Z,21.51
2022-08-01T07:50:34.188Z,21.67
2022-08-01T07:55:36.657Z,21.97
2022-08-01T08:00:42.061Z,21.97
2022-08-01T08:05:58.991Z,21.45
2022-08-01T08:11:02.817Z,22.38
2022-08-01T08:16:05.450Z,22.38
2022-08-01T08:21:07.935Z,22.45
2022-08-01T08:26:10.577Z,22.18
2022-08-01T08:31:25.457Z,22.04
2022-08-01T08:36:47.726Z,22.30
2022-08-01T08:41:50.620Z,22.10
2022-08-01T08:46:53.650Z,20.93
2022-08-01T08:52:00.626Z,22.24
2022-08-01T08:57:03.372Z,20.28
2022-08-01T09:02:08.267Z,20.60
2022-08-01T09:07:12.126Z,21.09
2022-08-01T09:12:17.974Z,22.95
2022-08-01T09:17:21.362Z,22.76
2022-08-01T09:22:25.844Z,21.73
2022-08-01T09:27:28.250Z,22.97
2022-08-01T09:32:35.825Z,23.21
2022-08-01T09:37:38.423Z,23.26
2022-08-01T09:42:52.990Z,23.57
2022-08-01T09:47:55.340Z,23.41
2022-08-01T09:52:58.262Z,23.48
2022-08-01T09:58:02.347Z,21.19
2022-08-01T10:03:25.124Z,23.60
2022-08-01T10:08:29.962Z,22.83
2022-08-01T10:13:36.703Z,23.67
2022-08-01T10:18:40.694Z,23.89
2022-08-01T10:23:44.376Z,23.58
2022-08-01T10:28:49.499Z,24.00
2022-08-01T10:33:53.453Z,23.57
2022-08-01T10:38:56.807Z,24.27
2022-08-01T10:43:59.265Z,24.00
2022-08-01T10:49:09.137Z,23.80
2022-08-01T10:54:13.191Z,24.22
2022-08-01T10:59:21.627Z,23.60
2022-08-01T11:04:44.272Z,24.67
2022-08-01T11:10:04.251Z,24.80
2022-08-01T11:15:13.182Z,24.76
2022-08-01T11:20:44.922Z,24.12
2022-08-01T11:26:10.123Z,24.46
2022-08-01T11:31:19.011Z,24.83
2022-08-01T11:36:55.924Z,25.04
2022-08-01T11:41:47.408Z,23.65
2022-08-01T11:46:56.814Z,25.00
2022-08-01T11:52:04.093Z,24.72
2022-08-01T11:57:11.545Z,22.62
2022-08-01T12:02:30.509Z,25.20
2022-08-01T12:07:35.123Z,25.22
2022-08-01T12:12:38.976Z,24.88
2022-08-01T12:17:58.403Z,24.17
2022-08-01T12:23:04.431Z,25.40
2022-08-01T12:28:09.089Z,25.34
2022-08-01T12:33:18.996Z,25.08
2022-08-01T12:38:24.220Z,24.92
2022-08-01T12:43:28.932Z,25.26
2022-08-01T12:48:32.480Z,23.80
2022-08-01T12:53:40.644Z,25.12
2022-08-01T12:58:43.773Z,24.62
2022-08-01T13:04:01.253Z,24.32
2022-08-01T13:09:08.049Z,23.56
2022-08-01T13:14:10.942Z,24.81
2022-08-01T13:19:13.341Z,25.02
2022-08-01T13:24:16.043Z,25.21
2022-08-01T13:29:20.504Z,24.81
2022-08-01T13:34:33.962Z,25.20
2022-08-01T13:39:45.678Z,25.44
2022-08-01T13:44:48.050Z,23.13
2022-08-01T13:49:50.451Z,25.59
2022-08-01T13:54:52.901Z,24.96
2022-08-01T13:59:55.360Z,25.62
2022-08-01T14:04:59.719Z,24.70
2022-08-01T14:10:18.056Z,23.75
2022-08-01T14:15:37.694Z,24.80
2022-08-01T14:20:41.083Z,25.21
2022-08-01T14:26:03.833Z,23.28
2022-08-01T14:31:09.824Z,24.72
2022-08-01T14:36:29.969Z,24.56
2022-08-01T14:41:33.720Z,24.67
2022-08-01T14:46:36.240Z,24.65
2022-08-01T14:51:39.445Z,24.34
2022-08-01T14:56:41.781Z,24.46
2022-08-01T15:01:44.038Z,24.35
2022-08-01T15:06:46.501Z,24.28
2022-08-01T15:11:48.913Z,23.59
2022-08-01T15:16:51.302Z,23.80
2022-08-01T15:21:53.589Z,23.94
2022-08-01T15:26:55.992Z,23.34
2022-08-01T15:31:58.376Z,23.06
2022-08-01T15:37:00.795Z,23.65
2022-08-01T15:42:07.673Z,23.00
2022-08-01T15:52:31.595Z,23.29
2022-08-01T15:57:45.047Z,23.06
2022-08-01T16:02:48.013Z,22.31
2022-08-01T16:07:59.442Z,22.80
2022-08-01T16:13:07.194Z,23.12
2022-08-01T16:18:13.489Z,22.84
2022-08-01T16:23:16.173Z,23.23
2022-08-01T16:28:20.853Z,23.13
2022-08-01T16:33:47.770Z,22.94
2022-08-01T16:38:46.548Z,22.44
2022-08-01T16:43:53.764Z,22.87
2022-08-01T16:48:56.986Z,22.69
2022-08-01T16:53:59.204Z,22.65
2022-08-01T16:59:01.516Z,21.45
2022-08-01T17:04:04.448Z,20.19
2022-08-01T17:09:06.955Z,19.87
2022-08-01T17:14:09.302Z,18.95
2022-08-01T17:19:11.602Z,20.73
2022-08-01T17:24:16.558Z,21.97
2022-08-01T17:29:19.281Z,21.55
2022-08-01T17:34:21.631Z,21.14
2022-08-01T17:39:38.547Z,18.75
2022-08-01T17:44:41.818Z,19.42
2022-08-01T17:49:55.175Z,21.10
2022-08-01T17:54:58.390Z,19.52
2022-08-01T18:00:00.912Z,20.31
2022-08-01T18:05:04.884Z,21.05
2022-08-01T18:10:13.090Z,19.19
2022-08-01T18:15:22.290Z,21.05
2022-08-01T18:20:30.386Z,19.86
2022-08-01T18:25:34.332Z,20.70
2022-08-01T18:30:36.816Z,20.25
2022-08-01T18:35:52.160Z,18.63
2022-08-01T18:40:57.478Z,19.71
2022-08-01T18:46:03.418Z,20.20
2022-08-01T18:51:08.569Z,20.02
2022-08-01T18:56:15.545Z,19.95
2022-08-01T19:01:19.787Z,19.15
2022-08-01T19:06:23.652Z,17.45
2022-08-01T19:11:26.305Z,19.47
2022-08-01T19:16:29.055Z,17.92
2022-08-01T19:21:33.077Z,16.96
2022-08-01T19:26:36.501Z,19.17
2022-08-01T19:31:43.339Z,19.21
2022-08-01T19:36:53.629Z,18.58
2022-08-01T19:41:59.661Z,19.03
2022-08-01T19:47:02.405Z,18.63
2022-08-01T19:52:05.151Z,17.88
2022-08-01T19:57:08.421Z,19.00
2022-08-01T20:02:10.984Z,18.45
2022-08-01T20:07:18.667Z,18.74
2022-08-01T20:12:25.527Z,18.14
2022-08-01T20:17:27.935Z,18.63
2022-08-01T20:22:33.296Z,18.68
2022-08-01T20:27:39.115Z,16.36
2022-08-01T20:32:44.034Z,15.63
2022-08-01T20:38:06.758Z,18.34
2022-08-01T20:43:10.189Z,17.81
2022-08-01T20:48:13.022Z,16.35
2022-08-01T20:53:15.418Z,18.36
2022-08-01T20:58:30.292Z,17.75
2022-08-01T21:03:46.131Z,18.29
2022-08-01T21:08:50.255Z,18.14
2022-08-01T21:13:53.031Z,16.37
2022-08-01T21:19:21.382Z,17.40
2022-08-01T21:24:29.405Z,16.14
2022-08-01T21:29:33.617Z,16.05
2022-08-01T21:34:38.526Z,16.94
2022-08-01T21:39:41.535Z,17.36
2022-08-01T21:44:46.341Z,17.14
2022-08-01T21:49:48.684Z,15.11
2022-08-01T21:55:00.595Z,17.51
2022-08-01T22:00:10.377Z,17.36
2022-08-01T22:05:14.506Z,16.36
2022-08-01T22:10:18.140Z,16.63
2022-08-01T22:15:24.175Z,14.86
2022-08-01T22:20:28.186Z,17.20
2022-08-01T22:25:32.877Z,17.16
2022-08-01T22:30:35.702Z,17.00
2022-08-01T22:35:40.056Z,16.42
2022-08-01T22:40:48.504Z,15.28
2022-08-01T22:46:18.296Z,16.87
2022-08-01T22:51:41.619Z,15.46
2022-08-01T22:56:47.082Z,16.75
2022-08-01T23:01:51.856Z,14.02
2022-08-01T23:06:55.698Z,15.88
2022-08-01T23:11:59.810Z,16.68
2022-08-01T23:17:27.631Z,16.66
2022-08-01T23:22:33.015Z,14.52
2022-08-01T23:27:55.679Z,16.44
2022-08-01T23:33:00.392Z,15.05
2022-08-01T23:38:03.256Z,15.80
2022-08-01T23:43:17.138Z,15.01
2022-08-01T23:48:20.503Z,14.22
2022-08-01T23:53:22.875Z,14.36
2022-08-01T23:58:25.374Z,16.16
